Time;durP1;ratioP1;P1;durP2;ratioP2;P2;SDS_P1;SDS_P2;PMS_P1;PMS_P2;Temp;Humidity;BMP_temperature;BMP_pressure;BME280_temperature;BME280_humidity;BME280_pressure;Samples;Min_cycle;Max_cycle;Signal;HPM_P1;HPM_P2
2022/11/01 00:06:02;;;;;;;0.20;0.00;;;20.20;99.90;;;;;;25663245;23;20399;-70
2022/11/01 00:16:07;;;;;;;0.20;0.00;;;20.20;99.90;;;;;;25660438;23;20395;-69
2022/11/01 00:26:15;;;;;;;0.20;0.00;;;20.50;99.90;;;;;;25661852;23;20954;-70
2022/11/01 00:36:21;;;;;;;0.20;0.00;;;20.50;99.90;;;;;;25634098;23;20364;-70
2022/11/01 00:46:25;;;;;;;0.20;0.00;;;20.50;99.90;;;;;;25662519;23;20371;-70
2022/11/01 00:56:30;;;;;;;0.20;0.00;;;20.50;99.90;;;;;;25635820;23;20364;-70
2022/11/01 01:06:33;;;;;;;0.20;0.00;;;20.50;99.90;;;;;;25633738;23;20391;-70
2022/11/01 01:16:39;;;;;;;0.20;0.00;;;20.30;99.90;;;;;;25660361;23;20383;-70
2022/11/01 01:26:47;;;;;;;0.20;0.00;;;20.30;99.90;;;;;;25660484;23;20371;-69
2022/11/01 01:36:53;;;;;;;0.20;0.00;;;20.00;99.90;;;;;;25660744;23;20375;-69
2022/11/01 01:46:57;;;;;;;0.20;0.10;;;19.60;99.90;;;;;;25658987;23;20430;-70
2022/11/01 01:57:02;;;;;;;0.20;0.00;;;19.40;99.90;;;;;;25659142;23;20374;-69
2022/11/01 02:07:07;;;;;;;0.20;0.00;;;19.30;99.90;;;;;;25656109;23;21059;-70
2022/11/01 02:17:21;;;;;;;0.20;0.00;;;19.00;99.90;;;;;;25658569;23;20363;-69
2022/11/01 02:27:32;;;;;;;0.20;0.00;;;18.90;99.90;;;;;;25656842;23;20387;-69
2022/11/01 02:37:44;;;;;;;0.20;0.00;;;18.90;99.90;;;;;;25657011;23;20376;-70
2022/11/01 02:47:47;;;;;;;0.20;0.10;;;18.80;99.90;;;;;;25658397;23;20371;-69
2022/11/01 02:57:53;;;;;;;0.20;0.00;;;19.00;99.90;;;;;;25659419;23;20383;-69
2022/11/01 03:08:01;;;;;;;0.20;0.10;;;18.90;99.90;;;;;;25656909;23;20384;-69
2022/11/01 03:18:13;;;;;;;0.20;0.10;;;19.50;99.90;;;;;;25658873;23;20371;-70
2022/11/01 03:28:21;;;;;;;0.20;0.00;;;19.70;99.90;;;;;;25660998;23;20402;-70
2022/11/01 03:38:29;;;;;;;0.20;0.00;;;19.40;99.90;;;;;;25663321;23;20356;-70
2022/11/01 03:48:33;;;;;;;0.20;0.00;;;19.20;99.90;;;;;;25638084;23;20396;-70
2022/11/01 03:58:42;;;;;;;0.20;0.00;;;19.10;99.90;;;;;;25663955;23;20375;-70
2022/11/01 04:08:46;;;;;;;0.20;0.00;;;18.70;99.90;;;;;;25663394;23;20399;-70
2022/11/01 04:29:11;;;;;;;0.20;0.00;;;18.30;99.90;;;;;;25617378;23;20395;-70
2022/11/01 04:39:16;;;;;;;0.20;0.00;;;18.20;99.90;;;;;;25661044;23;20378;-70
2022/11/01 04:49:20;;;;;;;0.20;0.00;;;17.90;99.90;;;;;;25663101;23;20397;-69
2022/11/01 04:59:25;;;;;;;0.20;0.00;;;17.90;99.90;;;;;;25632671;23;20383;-69
2022/11/01 05:09:29;;;;;;;0.20;0.00;;;17.70;99.90;;;;;;25661291;23;20379;-68
2022/11/01 05:19:35;;;;;;;0.20;0.10;;;17.50;99.90;;;;;;25659896;23;20374;-69
2022/11/01 05:29:39;;;;;;;0.20;0.00;;;17.80;99.90;;;;;;25660988;23;20376;-69
2022/11/01 05:39:44;;;;;;;0.20;0.00;;;18.00;99.90;;;;;;25659519;23;20364;-69
2022/11/01 05:49:48;;;;;;;0.20;0.00;;;18.30;99.90;;;;;;25658847;23;20410;-69
2022/11/01 05:59:53;;;;;;;0.20;0.08;;;18.30;99.90;;;;;;25658902;23;20371;-69
2022/11/01 06:09:57;;;;;;;0.20;0.00;;;18.20;99.90;;;;;;25631396;23;20383;-69
2022/11/01 06:20:02;;;;;;;0.20;0.00;;;17.90;99.90;;;;;;25658922;23;20360;-70
2022/11/01 06:30:07;;;;;;;0.20;0.00;;;17.80;99.90;;;;;;25658955;23;21060;-69
2022/11/01 06:40:13;;;;;;;0.20;0.00;;;17.80;99.90;;;;;;25631323;23;20383;-70
2022/11/01 06:50:17;;;;;;;0.20;0.00;;;18.10;99.90;;;;;;25657222;23;20398;-70
2022/11/01 07:00:22;;;;;;;0.20;0.00;;;18.10;99.90;;;;;;25657740;23;20834;-70
2022/11/01 07:10:26;;;;;;;0.20;0.00;;;18.10;99.90;;;;;;25635193;23;20391;-71
2022/11/01 07:20:35;;;;;;;0.20;0.00;;;18.40;99.90;;;;;;25666791;23;20372;-69
2022/11/01 07:30:39;;;;;;;0.20;0.00;;;18.80;99.90;;;;;;25664505;23;20371;-70
2022/11/01 07:40:48;;;;;;;0.20;0.00;;;19.00;99.90;;;;;;25635479;23;20364;-70
2022/11/01 07:50:56;;;;;;;0.20;0.00;;;19.40;99.90;;;;;;25664670;23;20378;-71
2022/11/01 08:01:01;;;;;;;0.20;0.00;;;19.70;99.90;;;;;;25660755;23;20386;-70
2022/11/01 08:11:05;;;;;;;0.20;0.00;;;20.00;99.90;;;;;;25611263;23;20414;-69
2022/11/01 08:21:11;;;;;;;0.20;0.00;;;20.50;99.90;;;;;;25661027;23;20367;-71
2022/11/01 08:31:14;;;;;;;0.20;0.00;;;20.90;99.90;;;;;;25662471;23;20407;-71
2022/11/01 08:41:19;;;;;;;0.20;0.00;;;21.10;99.90;;;;;;25635872;23;20467;-72
2022/11/01 08:51:24;;;;;;;0.20;0.00;;;21.30;99.90;;;;;;25662035;23;20438;-72
2022/11/01 09:01:29;;;;;;;0.20;0.00;;;21.60;99.90;;;;;;25634559;23;20374;-72
2022/11/01 09:11:33;;;;;;;0.20;0.00;;;22.40;99.90;;;;;;25660645;23;20363;-73
2022/11/01 09:21:38;;;;;;;0.20;0.00;;;21.90;99.90;;;;;;25631144;23;20387;-72
2022/11/01 09:31:42;;;;;;;0.20;0.00;;;22.10;99.90;;;;;;25657092;23;20430;-71
2022/11/01 09:41:51;;;;;;;0.20;0.00;;;22.20;99.90;;;;;;25633864;23;20564;-70
2022/11/01 09:51:55;;;;;;;0.20;0.00;;;22.30;99.90;;;;;;25629767;23;20364;-71
2022/11/01 10:02:17;;;;;;;0.20;0.00;;;22.10;99.90;;;;;;25657333;23;20371;-69
2022/11/01 10:12:44;;;;;;;0.20;0.03;;;22.30;99.90;;;;;;25655195;23;20379;-70
2022/11/01 10:22:50;;;;;;;0.20;0.00;;;22.80;99.90;;;;;;25626333;23;20384;-70
2022/11/01 10:33:01;;;;;;;0.20;0.00;;;23.00;99.90;;;;;;25648804;23;20416;-71
2022/11/01 10:43:13;;;;;;;0.20;0.03;;;23.30;99.90;;;;;;25623676;23;20375;-70
2022/11/01 10:53:20;;;;;;;0.20;0.00;;;23.60;99.90;;;;;;25651310;23;20355;-70
2022/11/01 11:03:29;;;;;;;0.20;0.00;;;23.80;99.90;;;;;;25655248;23;21070;-70
2022/11/01 11:13:34;;;;;;;0.20;0.00;;;24.20;99.90;;;;;;25654265;23;20455;-69
2022/11/01 11:23:44;;;;;;;0.20;0.00;;;24.90;99.90;;;;;;25628493;23;20383;-69
2022/11/01 11:33:50;;;;;;;0.20;0.00;;;25.20;99.90;;;;;;25653990;23;20392;-69
2022/11/01 11:43:55;;;;;;;0.20;0.00;;;24.90;99.90;;;;;;25624983;23;20371;-69
2022/11/01 11:54:14;;;;;;;0.20;0.00;;;24.80;99.90;;;;;;25656466;23;20375;-71
2022/11/01 12:04:20;;;;;;;0.20;0.00;;;25.00;99.90;;;;;;25662314;23;20386;-71
2022/11/01 12:14:25;;;;;;;0.20;0.00;;;25.00;99.90;;;;;;25632098;23;20368;-70
2022/11/01 12:24:37;;;;;;;0.20;0.10;;;25.20;99.90;;;;;;25631779;23;20379;-72
2022/11/01 12:34:44;;;;;;;0.20;0.07;;;25.40;99.90;;;;;;25658511;23;20371;-69
2022/11/01 12:44:54;;;;;;;0.20;0.00;;;25.00;99.90;;;;;;25631877;23;20372;-70
2022/11/01 12:55:06;;;;;;;0.20;0.00;;;24.60;99.90;;;;;;25655511;23;20448;-70
2022/11/01 13:05:16;;;;;;;0.20;0.00;;;24.00;99.90;;;;;;25631572;23;20488;-70
2022/11/01 13:15:24;;;;;;;0.20;0.00;;;23.20;99.90;;;;;;25631082;23;20384;-70
2022/11/01 13:25:40;;;;;;;0.20;0.00;;;23.20;99.90;;;;;;25655068;23;20402;-70
2022/11/01 13:35:51;;;;;;;0.20;0.00;;;23.90;99.90;;;;;;25654309;23;20363;-69
2022/11/01 13:46:35;;;;;;;0.20;0.10;;;23.80;99.90;;;;;;25626978;23;20411;-69
2022/11/01 13:56:43;;;;;;;0.20;0.00;;;24.60;99.90;;;;;;25628987;23;20383;-69
2022/11/01 14:07:04;;;;;;;0.20;0.00;;;25.60;99.90;;;;;;25650833;23;20375;-69
2022/11/01 14:17:39;;;;;;;0.20;0.00;;;26.60;99.90;;;;;;25652823;23;20368;-69
2022/11/01 14:27:46;;;;;;;0.20;0.10;;;26.20;99.90;;;;;;25626115;23;20379;-69
2022/11/01 14:37:56;;;;;;;0.20;0.00;;;26.00;99.90;;;;;;25626036;23;20395;-69
2022/11/01 14:48:10;;;;;;;0.20;0.00;;;26.50;99.90;;;;;;25649935;23;20403;-69
2022/11/01 14:58:22;;;;;;;0.20;0.00;;;26.30;99.90;;;;;;25624813;23;20395;-70
2022/11/01 15:08:31;;;;;;;0.20;0.10;;;25.30;99.90;;;;;;25627341;23;20410;-70
2022/11/01 15:18:48;;;;;;;0.20;0.10;;;23.80;99.90;;;;;;25627157;23;20378;-69
2022/11/01 15:28:58;;;;;;;0.20;0.10;;;23.50;99.90;;;;;;25656837;23;20406;-69
2022/11/01 15:39:15;;;;;;;0.20;0.00;;;23.20;99.90;;;;;;25628715;23;20375;-70
2022/11/01 15:49:25;;;;;;;0.20;0.10;;;22.90;99.90;;;;;;25655046;23;20959;-75
2022/11/01 15:59:32;;;;;;;0.20;0.00;;;22.40;99.90;;;;;;25651652;23;20356;-69
2022/11/01 16:09:40;;;;;;;0.20;0.00;;;21.80;99.90;;;;;;25655335;23;20390;-70
2022/11/01 16:19:47;;;;;;;0.20;0.00;;;21.50;99.90;;;;;;25656268;23;20423;-69
2022/11/01 16:29:52;;;;;;;0.20;0.00;;;21.40;99.90;;;;;;25656999;23;20437;-71
2022/11/01 16:39:57;;;;;;;0.20;0.10;;;21.20;99.90;;;;;;25655356;23;20368;-71
2022/11/01 16:50:02;;;;;;;0.20;0.08;;;21.00;99.90;;;;;;25655188;23;20387;-70
2022/11/01 17:00:11;;;;;;;0.20;0.00;;;20.80;99.90;;;;;;25628464;23;20371;-71
2022/11/01 17:10:20;;;;;;;0.20;0.10;;;20.50;99.90;;;;;;25629008;23;20372;-71
2022/11/01 17:20:26;;;;;;;0.20;0.00;;;20.10;99.90;;;;;;25656337;23;20357;-70
2022/11/01 17:30:32;;;;;;;0.20;0.00;;;20.10;99.90;;;;;;25628413;23;20398;-71
2022/11/01 17:40:35;;;;;;;0.20;0.00;;;20.10;99.90;;;;;;25626645;23;20375;-70
2022/11/01 17:50:41;;;;;;;0.20;0.00;;;19.90;99.90;;;;;;25652364;23;20383;-70
2022/11/01 18:00:44;;;;;;;0.20;0.00;;;19.30;99.90;;;;;;25650613;23;20364;-70
2022/11/01 18:11:00;;;;;;;0.20;0.00;;;19.10;99.90;;;;;;25621339;23;20390;-72
2022/11/01 18:21:12;;;;;;;0.20;0.00;;;18.80;99.90;;;;;;25650662;23;20434;-71
2022/11/01 18:31:22;;;;;;;0.20;0.00;;;18.50;99.90;;;;;;25650963;23;20382;-70
2022/11/01 18:41:26;;;;;;;0.20;0.10;;;18.30;99.90;;;;;;25649883;23;20426;-73
2022/11/01 18:51:33;;;;;;;0.20;0.00;;;18.10;99.90;;;;;;25642409;23;20378;-70
2022/11/01 19:01:38;;;;;;;0.20;0.10;;;17.90;99.90;;;;;;25654749;23;20435;-71
2022/11/01 19:11:44;;;;;;;0.20;0.03;;;17.70;99.90;;;;;;25655272;23;20371;-70
2022/11/01 19:21:47;;;;;;;0.20;0.10;;;17.50;99.90;;;;;;25655218;23;21187;-70
2022/11/01 19:31:57;;;;;;;0.20;0.00;;;17.50;99.90;;;;;;25628489;23;20466;-69
2022/11/01 19:42:06;;;;;;;0.20;0.00;;;17.50;99.90;;;;;;25656188;23;20379;-71
2022/11/01 19:52:24;;;;;;;0.20;0.00;;;17.40;99.90;;;;;;25655903;23;20394;-71
2022/11/01 20:02:27;;;;;;;0.20;0.00;;;17.30;99.90;;;;;;25628963;23;20370;-70
2022/11/01 20:12:33;;;;;;;0.20;0.00;;;17.20;99.90;;;;;;25601878;23;20371;-69
2022/11/01 20:22:38;;;;;;;0.20;0.10;;;17.10;99.90;;;;;;25627627;23;20387;-70
2022/11/01 20:32:45;;;;;;;0.20;0.00;;;17.20;99.90;;;;;;25654396;23;20424;-71
2022/11/01 20:42:49;;;;;;;0.20;0.10;;;17.10;99.90;;;;;;25654669;23;20368;-68
2022/11/01 20:52:54;;;;;;;0.20;0.10;;;17.10;99.90;;;;;;25652751;23;20375;-70
2022/11/01 21:02:58;;;;;;;0.20;0.05;;;17.00;99.90;;;;;;25628687;23;20370;-70
2022/11/01 21:13:07;;;;;;;0.20;0.00;;;17.00;99.90;;;;;;25652756;23;20502;-70
2022/11/01 21:23:23;;;;;;;0.20;0.00;;;17.00;99.90;;;;;;25652779;23;20371;-71
2022/11/01 21:33:35;;;;;;;0.20;0.00;;;16.90;99.90;;;;;;25652474;23;20403;-72
2022/11/01 21:43:39;;;;;;;0.20;0.00;;;17.10;99.90;;;;;;25654094;23;20371;-73
2022/11/01 21:53:44;;;;;;;0.20;0.00;;;17.10;99.90;;;;;;25655133;23;20383;-72
2022/11/01 22:03:47;;;;;;;0.20;0.10;;;17.10;99.90;;;;;;25653077;23;20360;-70
2022/11/01 22:13:53;;;;;;;0.20;0.00;;;17.30;99.90;;;;;;25654307;23;20383;-70
2022/11/01 22:23:57;;;;;;;0.20;0.10;;;17.10;99.90;;;;;;25631956;23;20376;-70
2022/11/01 22:34:02;;;;;;;0.20;0.10;;;17.10;99.90;;;;;;25628585;23;20420;-72
2022/11/01 22:44:11;;;;;;;0.20;0.00;;;16.80;99.90;;;;;;25655025;23;20451;-71
2022/11/01 22:54:39;;;;;;;0.20;0.10;;;16.60;99.90;;;;;;25628622;23;20363;-70
2022/11/01 23:04:43;;;;;;;0.20;0.00;;;16.60;99.90;;;;;;25622324;23;20383;-71
2022/11/01 23:14:48;;;;;;;0.20;0.10;;;16.50;99.90;;;;;;25627785;23;20372;-71
2022/11/01 23:24:53;;;;;;;0.20;0.00;;;16.30;99.90;;;;;;25655514;23;20371;-71
2022/11/01 23:35:06;;;;;;;0.20;0.00;;;16.60;99.90;;;;;;25628166;23;20367;-71
2022/11/01 23:45:21;;;;;;;0.20;0.00;;;16.40;99.90;;;;;;25630794;23;20376;-71
2022/11/01 23:55:28;;;;;;;0.20;0.00;;;16.90;99.90;;;;;;25659989;23;20344;-70
